Wetterdaten: Woche 21.06.04 - 27.06.04 (KW26)
Datum Zeit Temperatur Luftfeuchte Luftdruck Regenmenge Wind Richtung Taupunkt Windchill
21.06.2004 00:00 13.1 C 75 % 1011.0 hPa 0.0 l/m 0.3 km/h (0 Bft) SO 8.9 C 13.1 C
21.06.2004 01:00 12.7 C 81 % 1012.0 hPa 0.0 l/m 0.4 km/h (0 Bft) O-SO 9.5 C 12.7 C
21.06.2004 02:00 12.4 C 84 % 1012.0 hPa 0.0 l/m 0.0 km/h (0 Bft) N 9.8 C 12.4 C
21.06.2004 03:00 12.4 C 85 % 1012.0 hPa 0.0 l/m 1.1 km/h (0 Bft) O-SO 9.9 C 12.4 C
21.06.2004 04:00 12.1 C 86 % 1012.2 hPa 0.0 l/m 0.0 km/h (0 Bft) N 9.8 C 12.1 C
21.06.2004 05:00 11.9 C 89 % 1012.6 hPa 0.0 l/m 1.5 km/h (1 Bft) O-SO 10.1 C 11.9 C
21.06.2004 06:00 12.0 C 89 % 1013.2 hPa 0.0 l/m 0.3 km/h (0 Bft) SO 10.4 C 12.0 C
21.06.2004 07:00 12.6 C 84 % 1013.1 hPa 0.0 l/m 0.1 km/h (0 Bft) O-NO 10.0 C 12.6 C
21.06.2004 08:00 13.7 C 73 % 1013.1 hPa 0.0 l/m 3.1 km/h (1 Bft) O-NO 8.9 C 13.7 C
21.06.2004 09:00 15.1 C 55 % 1013.8 hPa 0.0 l/m 4.2 km/h (1 Bft) NW 6.1 C 15.1 C
21.06.2004 10:00 16.0 C 47 % 1013.7 hPa 0.0 l/m 10.7 km/h (2 Bft) NW 4.7 C 16.0 C
21.06.2004 11:00 16.6 C 45 % 1013.8 hPa 0.0 l/m 17.1 km/h (3 Bft) NW 4.6 C 16.6 C
21.06.2004 12:00 17.7 C 47 % 1014.5 hPa 0.0 l/m 4.3 km/h (1 Bft) NW 6.2 C 17.7 C
21.06.2004 13:00 19.3 C 43 % 1013.4 hPa 0.0 l/m 6.5 km/h (2 Bft) NW 6.3 C 19.3 C
21.06.2004 14:00 20.0 C 40 % 1013.2 hPa 0.0 l/m 13.1 km/h (3 Bft) NW 5.9 C 20.0 C
21.06.2004 15:00 21.3 C 38 % 1013.0 hPa 0.0 l/m 12.0 km/h (2 Bft) NW 6.3 C 21.3 C
21.06.2004 16:00 21.7 C 37 % 1013.0 hPa 0.0 l/m 16.1 km/h (3 Bft) NW 6.3 C 21.7 C
21.06.2004 17:00 21.8 C 38 % 1013.0 hPa 0.0 l/m 12.1 km/h (2 Bft) NW 6.6 C 21.8 C
21.06.2004 18:00 21.1 C 39 % 1013.1 hPa 0.0 l/m 11.4 km/h (2 Bft) NW 6.6 C 21.1 C
21.06.2004 19:00 19.1 C 43 % 1014.1 hPa 0.0 l/m 13.3 km/h (3 Bft) NW 6.3 C 19.1 C
21.06.2004 20:00 18.5 C 48 % 1014.4 hPa 0.0 l/m 1.8 km/h (1 Bft) NW 7.2 C 18.5 C
21.06.2004 21:00 17.4 C 55 % 1015.4 hPa 0.0 l/m 1.6 km/h (1 Bft) NW 8.2 C 17.4 C
21.06.2004 22:00 15.3 C 69 % 1015.9 hPa 0.0 l/m 1.9 km/h (1 Bft) O 9.6 C 15.3 C
21.06.2004 23:00 14.1 C 75 % 1016.6 hPa 0.0 l/m 5.7 km/h (1 Bft) O-SO 9.7 C 14.1 C
22.06.2004 00:00 12.9 C 80 % 1017.3 hPa 0.0 l/m 6.2 km/h (2 Bft) O-SO 9.5 C 12.9 C
22.06.2004 01:00 12.1 C 83 % 1017.4 hPa 0.0 l/m 5.2 km/h (1 Bft) O-SO 9.4 C 12.1 C
22.06.2004 02:00 11.7 C 87 % 1017.4 hPa 0.0 l/m 0.8 km/h (0 Bft) O-SO 9.6 C 11.7 C
22.06.2004 03:00 12.1 C 89 % 1017.4 hPa 0.0 l/m 0.0 km/h (0 Bft) N 10.3 C 12.1 C
22.06.2004 04:00 12.4 C 90 % 1017.3 hPa 0.0 l/m 0.0 km/h (0 Bft) N 10.8 C 12.4 C
22.06.2004 05:00 12.5 C 90 % 1017.3 hPa 0.0 l/m 0.0 km/h (0 Bft) N 10.8 C 12.5 C
22.06.2004 06:00 12.7 C 90 % 1017.4 hPa 0.0 l/m 0.9 km/h (0 Bft) NW 11.0 C 12.7 C
22.06.2004 07:00 12.7 C 93 % 1018.3 hPa 2.2 l/m 1.1 km/h (0 Bft) O-SO 11.6 C 12.7 C
22.06.2004 08:00 12.9 C 98 % 1018.3 hPa 1.5 l/m 0.3 km/h (0 Bft) O-SO 12.6 C 12.9 C
22.06.2004 09:00 13.3 C 99 % 1019.1 hPa 2.5 l/m 0.0 km/h (0 Bft) N 13.2 C 13.3 C
22.06.2004 10:00 14.8 C 96 % 1019.1 hPa 0.0 l/m 0.1 km/h (0 Bft) N 14.2 C 14.8 C
22.06.2004 11:00 15.7 C 94 % 1019.0 hPa 0.0 l/m 2.1 km/h (1 Bft) O-SO 14.7 C 15.7 C
22.06.2004 12:00 16.6 C 90 % 1018.8 hPa 0.0 l/m 2.2 km/h (1 Bft) O 15.1 C 16.6 C
22.06.2004 13:00 17.9 C 82 % 1018.5 hPa 0.0 l/m 0.5 km/h (0 Bft) NO 14.8 C 17.9 C
22.06.2004 14:00 18.9 C 76 % 1018.1 hPa 0.0 l/m 1.0 km/h (0 Bft) SO 14.6 C 18.9 C
22.06.2004 15:00 18.4 C 80 % 1017.6 hPa 0.0 l/m 2.4 km/h (1 Bft) NW 14.9 C 18.4 C
22.06.2004 16:00 20.2 C 69 % 1017.3 hPa 0.0 l/m 0.3 km/h (0 Bft) NW 14.3 C 20.2 C
22.06.2004 17:00 22.1 C 57 % 1016.2 hPa 0.0 l/m 3.4 km/h (1 Bft) NW 13.3 C 22.1 C
22.06.2004 18:00 21.7 C 60 % 1015.4 hPa 0.0 l/m 0.2 km/h (0 Bft) NW 13.7 C 21.7 C
22.06.2004 19:00 20.8 C 70 % 1015.2 hPa 0.0 l/m 0.5 km/h (0 Bft) O-SO 15.1 C 20.8 C
22.06.2004 20:00 19.3 C 79 % 1015.3 hPa 0.0 l/m 1.8 km/h (1 Bft) O-SO 15.5 C 19.3 C
22.06.2004 21:00 17.5 C 85 % 1014.6 hPa 0.0 l/m 0.0 km/h (0 Bft) N 14.9 C 17.5 C
22.06.2004 22:00 16.2 C 91 % 1014.7 hPa 0.0 l/m 0.2 km/h (0 Bft) N 14.7 C 16.2 C
22.06.2004 23:00 15.4 C 95 % 1014.8 hPa 0.0 l/m 0.0 km/h (0 Bft) N 14.5 C 15.4 C
23.06.2004 00:00 14.6 C 97 % 1014.4 hPa 0.0 l/m 0.0 km/h (0 Bft) N 14.2 C 14.6 C
23.06.2004 01:00 13.7 C 98 % 1014.0 hPa 0.0 l/m 0.1 km/h (0 Bft) O-SO 13.4 C 13.7 C
23.06.2004 02:00 13.6 C 100 % 1013.9 hPa 0.0 l/m 0.4 km/h (0 Bft) O-SO 13.5 C 13.6 C
23.06.2004 03:00 13.2 C 100 % 1013.1 hPa 0.0 l/m 1.1 km/h (0 Bft) O-SO 13.2 C 13.2 C
23.06.2004 04:00 13.5 C 100 % 1012.1 hPa 0.0 l/m 3.0 km/h (1 Bft) NW 13.5 C 13.5 C
23.06.2004 05:00 14.5 C 100 % 1013.9 hPa 2.5 l/m 9.3 km/h (2 Bft) NW 14.5 C 14.5 C
23.06.2004 06:00 15.4 C 100 % 1014.8 hPa 1.2 l/m 8.7 km/h (2 Bft) SO 15.4 C 15.4 C
23.06.2004 07:00 15.5 C 100 % 1014.8 hPa 0.3 l/m 1.5 km/h (1 Bft) NO 15.5 C 15.5 C
23.06.2004 08:00 16.4 C 98 % 1013.9 hPa 0.0 l/m 4.0 km/h (1 Bft) O-SO 16.0 C 16.4 C
23.06.2004 09:00 17.1 C 92 % 1013.4 hPa 0.0 l/m 1.3 km/h (1 Bft) SO 15.7 C 17.1 C
23.06.2004 10:00 17.8 C 90 % 1012.4 hPa 0.0 l/m 6.0 km/h (2 Bft) SO 16.1 C 17.8 C
23.06.2004 11:00 19.1 C 81 % 1012.3 hPa 0.0 l/m 11.0 km/h (2 Bft) O-NO 15.8 C 19.1 C
23.06.2004 12:00 19.9 C 71 % 1012.2 hPa 0.0 l/m 8.0 km/h (2 Bft) N-NO 14.4 C 19.9 C
23.06.2004 13:00 21.0 C 67 % 1011.1 hPa 0.0 l/m 8.8 km/h (2 Bft) O 14.5 C 21.0 C
23.06.2004 14:00 20.9 C 71 % 1011.0 hPa 0.3 l/m 8.7 km/h (2 Bft) W-NW 15.3 C 20.9 C
23.06.2004 15:00 22.9 C 62 % 1010.8 hPa 0.0 l/m 10.1 km/h (2 Bft) NW 15.1 C 22.9 C
23.06.2004 16:00 23.4 C 56 % 1010.6 hPa 0.0 l/m 13.0 km/h (3 Bft) NW 14.2 C 23.4 C
23.06.2004 17:00 21.3 C 64 % 1010.7 hPa 0.3 l/m 9.7 km/h (2 Bft) NW 14.0 C 21.3 C
23.06.2004 18:00 16.8 C 88 % 1012.6 hPa 2.5 l/m 19.0 km/h (3 Bft) NW 14.8 C 16.8 C
23.06.2004 19:00 19.0 C 90 % 1011.6 hPa 0.0 l/m 1.3 km/h (1 Bft) O-SO 17.2 C 19.0 C
23.06.2004 20:00 19.1 C 89 % 1012.0 hPa 0.0 l/m 0.0 km/h (0 Bft) N 17.2 C 19.1 C
23.06.2004 21:00 17.5 C 94 % 1012.5 hPa 0.0 l/m 4.5 km/h (1 Bft) NW 16.4 C 17.5 C
23.06.2004 22:00 17.6 C 89 % 1012.9 hPa 0.0 l/m 10.4 km/h (2 Bft) NW 15.6 C 17.6 C
23.06.2004 23:00 16.4 C 91 % 1013.7 hPa 0.0 l/m 1.0 km/h (0 Bft) NW 15.0 C 16.4 C
24.06.2004 00:00 16.2 C 89 % 1013.7 hPa 0.0 l/m 2.1 km/h (1 Bft) O 14.4 C 16.2 C
24.06.2004 01:00 17.6 C 74 % 1013.5 hPa 0.0 l/m 23.4 km/h (4 Bft) NW 12.8 C 17.6 C
24.06.2004 02:00 17.4 C 65 % 1013.5 hPa 0.0 l/m 22.2 km/h (4 Bft) NW 10.8 C 17.4 C
24.06.2004 03:00 17.0 C 65 % 1013.6 hPa 0.0 l/m 22.5 km/h (4 Bft) NW 10.3 C 17.0 C
24.06.2004 04:00 16.6 C 63 % 1013.6 hPa 0.0 l/m 21.6 km/h (4 Bft) NW 9.4 C 16.6 C
24.06.2004 05:00 16.3 C 64 % 1014.6 hPa 0.0 l/m 22.2 km/h (4 Bft) NW 9.5 C 16.3 C
24.06.2004 06:00 15.9 C 62 % 1014.8 hPa 0.0 l/m 23.6 km/h (4 Bft) NW 8.6 C 15.9 C
24.06.2004 07:00 15.1 C 64 % 1014.9 hPa 0.0 l/m 21.0 km/h (4 Bft) NW 8.3 C 15.1 C
24.06.2004 08:00 15.5 C 61 % 1015.8 hPa 0.0 l/m 22.2 km/h (4 Bft) NW 7.9 C 15.5 C
24.06.2004 09:00 16.0 C 60 % 1015.4 hPa 0.0 l/m 25.3 km/h (4 Bft) NW 8.2 C 16.0 C
24.06.2004 10:00 16.6 C 57 % 1014.8 hPa 0.0 l/m 31.3 km/h (5 Bft) NW 7.9 C 16.6 C
24.06.2004 11:00 17.5 C 51 % 1014.6 hPa 0.0 l/m 42.1 km/h (6 Bft) NW 7.3 C 17.5 C
24.06.2004 12:00 18.3 C 48 % 1014.5 hPa 0.0 l/m 43.8 km/h (6 Bft) NW 7.1 C 18.3 C
24.06.2004 13:00 19.3 C 45 % 1014.3 hPa 0.0 l/m 42.9 km/h (6 Bft) NW 7.1 C 19.3 C
24.06.2004 14:00 20.0 C 41 % 1014.2 hPa 0.0 l/m 42.7 km/h (6 Bft) NW 6.5 C 20.0 C
24.06.2004 15:00 20.8 C 40 % 1014.1 hPa 0.0 l/m 39.0 km/h (6 Bft) NW 6.7 C 20.8 C
24.06.2004 16:00 21.3 C 38 % 1014.1 hPa 0.0 l/m 36.5 km/h (5 Bft) NW 6.4 C 21.3 C
24.06.2004 17:00 20.9 C 37 % 1014.1 hPa 0.0 l/m 39.6 km/h (6 Bft) NW 5.7 C 20.9 C
24.06.2004 18:00 21.4 C 38 % 1014.1 hPa 0.0 l/m 32.2 km/h (5 Bft) NW 6.4 C 21.4 C
24.06.2004 19:00 20.6 C 40 % 1015.2 hPa 0.0 l/m 27.8 km/h (4 Bft) NW 6.6 C 20.6 C
24.06.2004 20:00 19.2 C 43 % 1015.4 hPa 0.0 l/m 26.1 km/h (4 Bft) NW 6.4 C 19.2 C
24.06.2004 21:00 17.9 C 48 % 1015.6 hPa 0.0 l/m 25.6 km/h (4 Bft) NW 6.6 C 17.9 C
24.06.2004 22:00 17.2 C 52 % 1016.5 hPa 0.0 l/m 11.2 km/h (2 Bft) NW 7.1 C 17.2 C
24.06.2004 23:00 16.9 C 54 % 1016.7 hPa 0.0 l/m 3.4 km/h (1 Bft) NW 7.4 C 16.9 C
25.06.2004 00:00 15.7 C 67 % 1016.9 hPa 0.0 l/m 0.3 km/h (0 Bft) N 9.6 C 15.7 C
25.06.2004 01:00 14.8 C 67 % 1017.0 hPa 0.0 l/m 0.2 km/h (0 Bft) N 8.7 C 14.8 C
25.06.2004 02:00 14.1 C 75 % 1017.1 hPa 0.0 l/m 0.6 km/h (0 Bft) O-SO 9.7 C 14.1 C
25.06.2004 03:00 13.3 C 79 % 1017.2 hPa 0.0 l/m 0.0 km/h (0 Bft) N 9.8 C 13.3 C
25.06.2004 04:00 12.7 C 86 % 1017.3 hPa 0.0 l/m 0.0 km/h (0 Bft) N 10.4 C 12.7 C
25.06.2004 05:00 12.9 C 89 % 1017.3 hPa 0.0 l/m 0.0 km/h (0 Bft) N 11.1 C 12.9 C
25.06.2004 06:00 13.0 C 89 % 1018.1 hPa 0.0 l/m 0.0 km/h (0 Bft) N 11.2 C 13.0 C
25.06.2004 07:00 13.6 C 83 % 1018.2 hPa 0.0 l/m 0.0 km/h (0 Bft) N 10.7 C 13.6 C
25.06.2004 08:00 14.8 C 81 % 1018.0 hPa 0.0 l/m 1.3 km/h (1 Bft) O-SO 11.5 C 14.8 C
25.06.2004 09:00 16.3 C 65 % 1018.5 hPa 0.0 l/m 14.4 km/h (3 Bft) NW 9.7 C 16.3 C
25.06.2004 10:00 18.0 C 54 % 1018.7 hPa 0.0 l/m 20.8 km/h (4 Bft) NW 8.5 C 18.0 C
25.06.2004 11:00 18.8 C 46 % 1018.6 hPa 0.0 l/m 25.5 km/h (4 Bft) NW 6.7 C 18.8 C
25.06.2004 12:00 19.7 C 40 % 1018.4 hPa 0.0 l/m 30.8 km/h (5 Bft) NW 5.8 C 19.7 C
25.06.2004 13:00 20.4 C 36 % 1018.3 hPa 0.0 l/m 33.6 km/h (5 Bft) NW 4.8 C 20.4 C
25.06.2004 14:00 21.1 C 34 % 1018.3 hPa 0.0 l/m 32.6 km/h (5 Bft) NW 4.5 C 21.1 C
25.06.2004 15:00 21.8 C 33 % 1018.2 hPa 0.0 l/m 28.5 km/h (4 Bft) NW 4.9 C 21.8 C
25.06.2004 16:00 22.4 C 31 % 1018.1 hPa 0.0 l/m 29.8 km/h (5 Bft) NW 4.2 C 22.4 C
25.06.2004 17:00 22.4 C 28 % 1018.7 hPa 0.0 l/m 28.5 km/h (4 Bft) NW 3.0 C 22.4 C
25.06.2004 18:00 21.7 C 29 % 1019.2 hPa 0.0 l/m 23.3 km/h (4 Bft) NW 2.9 C 21.7 C
25.06.2004 19:00 20.5 C 34 % 1019.4 hPa 0.0 l/m 11.8 km/h (2 Bft) NW 4.0 C 20.5 C
25.06.2004 20:00 19.7 C 39 % 1020.3 hPa 0.0 l/m 5.7 km/h (1 Bft) NW 5.5 C 19.7 C
25.06.2004 21:00 18.3 C 45 % 1020.8 hPa 0.0 l/m 0.7 km/h (0 Bft) N-NO 6.2 C 18.3 C
25.06.2004 22:00 17.2 C 48 % 1021.9 hPa 0.0 l/m 0.0 km/h (0 Bft) N 6.0 C 17.2 C
25.06.2004 23:00 15.0 C 61 % 1022.2 hPa 0.0 l/m 1.0 km/h (0 Bft) O 7.4 C 15.0 C
26.06.2004 00:00 12.5 C 75 % 1022.5 hPa 0.0 l/m 0.3 km/h (0 Bft) O 8.1 C 12.5 C
26.06.2004 01:00 11.9 C 78 % 1022.6 hPa 0.0 l/m 0.1 km/h (0 Bft) O 8.1 C 11.9 C
26.06.2004 02:00 11.0 C 82 % 1022.7 hPa 0.0 l/m 1.5 km/h (1 Bft) O 8.0 C 11.0 C
26.06.2004 03:00 10.7 C 83 % 1022.8 hPa 0.0 l/m 0.0 km/h (0 Bft) N 7.9 C 10.7 C
26.06.2004 04:00 9.4 C 90 % 1022.9 hPa 0.0 l/m 0.0 km/h (0 Bft) N 7.9 C 9.4 C
26.06.2004 05:00 8.9 C 94 % 1023.5 hPa 0.0 l/m 0.0 km/h (0 Bft) N 7.9 C 8.9 C
26.06.2004 06:00 8.6 C 92 % 1024.1 hPa 0.0 l/m 0.0 km/h (0 Bft) N 7.4 C 8.6 C
26.06.2004 07:00 10.5 C 84 % 1023.8 hPa 0.0 l/m 0.0 km/h (0 Bft) O 7.8 C 10.5 C
26.06.2004 08:00 13.0 C 69 % 1023.5 hPa 0.0 l/m 0.6 km/h (0 Bft) NO 7.4 C 13.0 C
26.06.2004 09:00 16.0 C 55 % 1023.1 hPa 0.0 l/m 1.4 km/h (1 Bft) SO 7.0 C 16.0 C
26.06.2004 10:00 18.2 C 49 % 1021.7 hPa 0.0 l/m 2.5 km/h (1 Bft) O-SO 7.5 C 18.2 C
26.06.2004 11:00 20.5 C 43 % 1021.4 hPa 0.0 l/m 5.1 km/h (1 Bft) O-SO 7.6 C 20.5 C
26.06.2004 12:00 21.7 C 41 % 1021.1 hPa 0.0 l/m 5.9 km/h (2 Bft) O-SO 7.8 C 21.7 C
26.06.2004 13:00 22.8 C 34 % 1020.1 hPa 0.0 l/m 4.4 km/h (1 Bft) NW 6.1 C 22.8 C
26.06.2004 14:00 24.7 C 31 % 1019.9 hPa 0.0 l/m 1.4 km/h (1 Bft) N-NW 6.4 C 24.7 C
26.06.2004 15:00 26.2 C 26 % 1019.7 hPa 0.0 l/m 2.4 km/h (1 Bft) NW 5.0 C 26.2 C
26.06.2004 16:00 26.2 C 25 % 1019.7 hPa 0.0 l/m 3.4 km/h (1 Bft) NO 4.8 C 26.2 C
26.06.2004 17:00 26.4 C 25 % 1019.6 hPa 0.0 l/m 7.4 km/h (2 Bft) NW 5.0 C 26.4 C
26.06.2004 18:00 25.9 C 29 % 1018.7 hPa 0.0 l/m 4.6 km/h (1 Bft) NW 6.6 C 25.9 C
26.06.2004 19:00 23.8 C 39 % 1019.7 hPa 0.0 l/m 0.0 km/h (0 Bft) N 8.8 C 23.8 C
26.06.2004 20:00 21.0 C 59 % 1020.3 hPa 0.0 l/m 4.5 km/h (1 Bft) O-SO 12.6 C 21.0 C
26.06.2004 21:00 19.5 C 61 % 1020.5 hPa 0.0 l/m 7.8 km/h (2 Bft) O-SO 11.9 C 19.5 C
26.06.2004 22:00 18.2 C 66 % 1021.4 hPa 0.0 l/m 2.4 km/h (1 Bft) O-SO 11.7 C 18.2 C
26.06.2004 23:00 17.1 C 67 % 1021.4 hPa 0.0 l/m 0.7 km/h (0 Bft) O-SO 10.8 C 17.1 C
27.06.2004 00:00 15.3 C 73 % 1021.1 hPa 0.0 l/m 2.4 km/h (1 Bft) O-SO 10.6 C 15.3 C
27.06.2004 01:00 14.7 C 76 % 1021.2 hPa 0.0 l/m 1.2 km/h (1 Bft) O-SO 10.5 C 14.7 C
27.06.2004 02:00 13.4 C 81 % 1021.3 hPa 0.0 l/m 1.4 km/h (1 Bft) O-SO 10.2 C 13.4 C
27.06.2004 03:00 12.5 C 86 % 1021.5 hPa 0.0 l/m 3.3 km/h (1 Bft) O-SO 10.2 C 12.5 C
27.06.2004 04:00 12.6 C 85 % 1021.5 hPa 0.0 l/m 1.4 km/h (1 Bft) O-SO 10.2 C 12.6 C
27.06.2004 05:00 13.0 C 85 % 1021.4 hPa 0.0 l/m 0.0 km/h (0 Bft) N 10.5 C 13.0 C
27.06.2004 06:00 13.6 C 89 % 1021.3 hPa 0.0 l/m 0.3 km/h (0 Bft) O-SO 11.8 C 13.6 C
27.06.2004 07:00 15.3 C 84 % 1021.1 hPa 0.0 l/m 0.0 km/h (0 Bft) N 12.5 C 15.3 C
27.06.2004 08:00 16.8 C 75 % 1020.9 hPa 0.0 l/m 0.7 km/h (0 Bft) O 12.4 C 16.8 C
27.06.2004 09:00 19.9 C 60 % 1020.5 hPa 0.0 l/m 7.2 km/h (2 Bft) O-SO 11.9 C 19.9 C
27.06.2004 10:00 22.4 C 52 % 1019.7 hPa 0.0 l/m 13.5 km/h (3 Bft) O-SO 12.1 C 22.4 C
27.06.2004 11:00 24.9 C 45 % 1018.8 hPa 0.0 l/m 8.2 km/h (2 Bft) O-SO 12.2 C 24.9 C
27.06.2004 12:00 27.2 C 42 % 1018.5 hPa 0.0 l/m 7.1 km/h (2 Bft) O-SO 13.1 C 27.2 C
27.06.2004 13:00 29.0 C 36 % 1018.3 hPa 0.0 l/m 12.5 km/h (3 Bft) NW 12.4 C 29.0 C
27.06.2004 14:00 27.4 C 42 % 1018.7 hPa 0.0 l/m 8.9 km/h (2 Bft) NW 13.5 C 27.4 C
27.06.2004 15:00 26.3 C 52 % 1018.8 hPa 0.0 l/m 4.5 km/h (1 Bft) W-NW 15.6 C 26.3 C
27.06.2004 16:00 27.3 C 57 % 1018.5 hPa 0.0 l/m 3.4 km/h (1 Bft) O-SO 17.8 C 27.3 C
27.06.2004 17:00 26.7 C 55 % 1018.6 hPa 0.0 l/m 1.8 km/h (1 Bft) NW 16.9 C 26.7 C
27.06.2004 18:00 27.7 C 49 % 1018.5 hPa 0.0 l/m 4.9 km/h (1 Bft) NW 16.1 C 27.7 C
27.06.2004 19:00 27.0 C 50 % 1018.8 hPa 0.0 l/m 10.7 km/h (2 Bft) NW 15.6 C 27.0 C
27.06.2004 20:00 25.1 C 55 % 1019.8 hPa 0.0 l/m 12.4 km/h (3 Bft) NW 15.2 C 25.1 C
27.06.2004 21:00 23.7 C 60 % 1020.0 hPa 0.0 l/m 2.7 km/h (1 Bft) NW 15.5 C 23.7 C
27.06.2004 22:00 22.0 C 68 % 1020.3 hPa 0.0 l/m 2.9 km/h (1 Bft) O-SO 15.9 C 22.0 C
27.06.2004 23:00 20.3 C 83 % 1021.3 hPa 0.0 l/m 6.1 km/h (2 Bft) O-SO 17.4 C 20.3 C
Min-Datum _ 26.06.04 26.06.04 23.06.04 - 21.06.04 - 25.06.04 26.06.04
_ Min-Zeit 06:05 15:14 16:56 - 00:05 - 18:14 06:05
Minimum _ 8.4 C 25 % 1009.5 hPa - 0.0 km/h (0 Bft) - 1.7 C 8.4 C
Max-Datum _ 27.06.04 23.06.04 26.06.04 23.06.04 24.06.04 - 27.06.04 27.06.04
_ Max-Zeit 13:44 02:32 06:05 18:23 12:47 - 16:08 13:44
Maximum _ 29.6 C 100 % 1024.1 hPa 2.5 l/m 66.5 km/h
NW (8 Bft)
- 19.2 C 29.6 C
Durchschnitt _ 17.7 C 66 % 1016.9 hPa #13.3 l/m 8.5 km/h (2 Bft) NW 10.4 C 17.7 C

Durchschnitt Minimum Temp.16.8 C
Durchschnitt Maximum Temp.18.6 C
© Kaiko 2004